Time;durP1;ratioP1;P1;durP2;ratioP2;P2;SDS_P1;SDS_P2;PMS_P1;PMS_P2;Temp;Humidity;BMP_temperature;BMP_pressure;BME280_temperature;BME280_humidity;BME280_pressure;Samples;Min_cycle;Max_cycle;Signal;HPM_P1;HPM_P2
2024/01/31 00:04:06;;;;;;;2.15;0.77;;;;;;;;;;10457879;28;20070;-77
2024/01/31 00:09:19;;;;;;;3.75;1.63;;;;;;;;;;10475079;28;21826;-76
2024/01/31 00:14:23;;;;;;;7.80;2.40;;;;;;;;;;10475284;28;20134;-75
2024/01/31 00:19:31;;;;;;;4.53;2.33;;;;;;;;;;10478505;28;20201;-76
2024/01/31 00:24:42;;;;;;;5.55;1.88;;;;;;;;;;10473423;28;20053;-76
2024/01/31 00:29:47;;;;;;;8.15;1.60;;;;;;;;;;10473068;28;20114;-76
2024/01/31 00:34:59;;;;;;;5.45;2.25;;;;;;;;;;10472582;28;20557;-76
2024/01/31 00:40:05;;;;;;;4.30;1.90;;;;;;;;;;10465292;28;20082;-77
2024/01/31 00:45:14;;;;;;;4.32;2.28;;;;;;;;;;10456045;28;20064;-77
2024/01/31 00:55:54;;;;;;;6.47;2.38;;;;;;;;;;10471994;28;20052;-76
2024/01/31 01:01:00;;;;;;;5.43;2.38;;;;;;;;;;10472378;28;20393;-76
2024/01/31 01:06:37;;;;;;;5.55;2.35;;;;;;;;;;10473668;28;20560;-77
2024/01/31 01:17:32;;;;;;;4.35;2.08;;;;;;;;;;10454538;28;20112;-77
2024/01/31 01:22:42;;;;;;;8.35;2.47;;;;;;;;;;10476524;28;20198;-77
2024/01/31 01:27:52;;;;;;;5.13;2.00;;;;;;;;;;10453779;28;20099;-77
2024/01/31 01:32:59;;;;;;;4.95;2.15;;;;;;;;;;10472470;28;20051;-77
2024/01/31 01:43:31;;;;;;;7.40;2.40;;;;;;;;;;10472905;28;20153;-77
2024/01/31 01:48:42;;;;;;;7.22;2.38;;;;;;;;;;10469903;28;20566;-78
2024/01/31 01:53:49;;;;;;;6.10;2.63;;;;;;;;;;10468950;28;20044;-78
2024/01/31 01:59:01;;;;;;;6.63;2.28;;;;;;;;;;10469988;28;20714;-76
2024/01/31 02:04:09;;;;;;;5.55;2.42;;;;;;;;;;10437370;28;20036;-74
2024/01/31 02:09:14;;;;;;;7.55;2.65;;;;;;;;;;10451720;28;20383;-75
2024/01/31 02:14:25;;;;;;;4.13;2.17;;;;;;;;;;10470272;28;20225;-74
2024/01/31 02:19:29;;;;;;;6.78;2.63;;;;;;;;;;10454467;28;20131;-76
2024/01/31 02:24:43;;;;;;;6.82;2.70;;;;;;;;;;10470286;28;20117;-75
2024/01/31 02:29:47;;;;;;;5.72;2.47;;;;;;;;;;10466055;28;20051;-75
2024/01/31 02:34:56;;;;;;;;;;;;;;;;;;10467797;28;20071;-76
2024/01/31 02:40:04;;;;;;;6.03;2.42;;;;;;;;;;10447763;28;20762;-77
2024/01/31 02:45:10;;;;;;;6.90;2.60;;;;;;;;;;10467625;28;20047;-76
2024/01/31 02:50:15;;;;;;;4.80;2.30;;;;;;;;;;10468173;28;20194;-78
2024/01/31 02:55:19;;;;;;;6.13;2.33;;;;;;;;;;10453466;28;20126;-76
2024/01/31 03:00:29;;;;;;;6.32;2.35;;;;;;;;;;10468280;28;20055;-76
2024/01/31 03:05:34;;;;;;;5.72;2.72;;;;;;;;;;10451694;28;20057;-75
2024/01/31 03:10:58;;;;;;;6.68;2.28;;;;;;;;;;10467793;28;20052;-75
2024/01/31 03:16:03;;;;;;;6.05;2.55;;;;;;;;;;10467454;28;20454;-76
2024/01/31 03:21:08;;;;;;;7.40;2.67;;;;;;;;;;10471387;28;20132;-77
2024/01/31 03:26:16;;;;;;;5.38;2.30;;;;;;;;;;10471928;28;20480;-76
2024/01/31 03:31:29;;;;;;;5.80;2.42;;;;;;;;;;10476544;28;21547;-76
2024/01/31 03:36:38;;;;;;;6.55;2.78;;;;;;;;;;10460125;28;20056;-76
2024/01/31 03:41:51;;;;;;;8.10;2.83;;;;;;;;;;10475852;28;20044;-76
2024/01/31 03:46:57;;;;;;;6.97;2.38;;;;;;;;;;10476564;28;20512;-77
2024/01/31 03:52:05;;;;;;;4.78;2.40;;;;;;;;;;10476337;28;20070;-76
2024/01/31 03:57:21;;;;;;;6.57;2.65;;;;;;;;;;10476581;28;20490;-76
2024/01/31 04:02:29;;;;;;;6.70;2.63;;;;;;;;;;10476093;28;20044;-76
2024/01/31 04:07:39;;;;;;;6.88;2.38;;;;;;;;;;10456114;28;20445;-77
2024/01/31 04:13:05;;;;;;;3.65;2.05;;;;;;;;;;10474792;28;20040;-76
2024/01/31 04:18:14;;;;;;;5.63;2.45;;;;;;;;;;10459891;28;20080;-76
2024/01/31 04:23:20;;;;;;;7.25;2.17;;;;;;;;;;10472115;28;20036;-76
2024/01/31 04:28:30;;;;;;;5.22;2.28;;;;;;;;;;10460516;28;20044;-76
2024/01/31 04:33:36;;;;;;;5.50;2.20;;;;;;;;;;10459671;28;20043;-76
2024/01/31 04:38:40;;;;;;;4.78;2.30;;;;;;;;;;10475864;28;20524;-77
2024/01/31 04:43:53;;;;;;;4.78;1.90;;;;;;;;;;10478615;28;20163;-74
2024/01/31 04:48:58;;;;;;;3.95;2.47;;;;;;;;;;10476524;28;20052;-75
2024/01/31 04:54:15;;;;;;;5.55;2.20;;;;;;;;;;10460480;28;20040;-76
2024/01/31 04:59:32;;;;;;;6.32;2.65;;;;;;;;;;10477655;28;20052;-73
2024/01/31 05:04:38;;;;;;;6.85;2.45;;;;;;;;;;10479314;28;20055;-75
2024/01/31 05:09:44;;;;;;;5.75;2.22;;;;;;;;;;10474827;28;20143;-75
2024/01/31 05:15:02;;;;;;;4.90;2.13;;;;;;;;;;10470475;28;20425;-76
2024/01/31 05:20:10;;;;;;;6.15;2.67;;;;;;;;;;10478854;28;20044;-77
2024/01/31 05:25:14;;;;;;;5.65;2.47;;;;;;;;;;10474809;28;20063;-76
2024/01/31 05:30:36;;;;;;;5.85;2.33;;;;;;;;;;10457289;28;20032;-76
2024/01/31 05:35:47;;;;;;;5.43;2.40;;;;;;;;;;10472859;28;20047;-76
2024/01/31 05:40:52;;;;;;;4.53;2.53;;;;;;;;;;10474643;28;20048;-75
2024/01/31 05:46:15;;;;;;;10.48;2.72;;;;;;;;;;10474140;28;20037;-75
2024/01/31 05:51:33;;;;;;;6.15;1.83;;;;;;;;;;10472380;28;20853;-75
2024/01/31 05:56:41;;;;;;;8.50;3.13;;;;;;;;;;10471501;28;20049;-75
2024/01/31 06:01:57;;;;;;;9.65;2.88;;;;;;;;;;10470573;28;20051;-72
2024/01/31 06:07:06;;;;;;;8.23;3.22;;;;;;;;;;10454000;28;20077;-76
2024/01/31 06:12:10;;;;;;;14.25;3.53;;;;;;;;;;10452150;28;20045;-76
2024/01/31 06:17:22;;;;;;;9.30;3.00;;;;;;;;;;10456307;28;20037;-75
2024/01/31 06:22:37;;;;;;;9.40;3.92;;;;;;;;;;10469749;28;20139;-74
2024/01/31 06:27:44;;;;;;;8.90;3.33;;;;;;;;;;10451796;28;20518;-75
2024/01/31 06:33:06;;;;;;;9.50;3.30;;;;;;;;;;10455130;28;20170;-76
2024/01/31 06:38:18;;;;;;;5.80;2.35;;;;;;;;;;10471000;28;20056;-75
2024/01/31 06:43:24;;;;;;;9.43;3.20;;;;;;;;;;10450746;28;20560;-75
2024/01/31 06:48:36;;;;;;;9.45;3.42;;;;;;;;;;10469317;28;20153;-75
2024/01/31 06:53:47;;;;;;;7.53;3.08;;;;;;;;;;10455446;28;20049;-75
2024/01/31 06:59:00;;;;;;;8.20;3.25;;;;;;;;;;10471609;28;20548;-76
2024/01/31 07:04:14;;;;;;;5.65;2.70;;;;;;;;;;10475076;28;20150;-77
2024/01/31 07:09:28;;;;;;;6.90;2.03;;;;;;;;;;10478287;28;20075;-77
2024/01/31 07:14:35;;;;;;;9.73;3.05;;;;;;;;;;10479108;28;20044;-76
2024/01/31 07:19:46;;;;;;;3.80;1.88;;;;;;;;;;10458442;28;20040;-77
2024/01/31 07:24:59;;;;;;;7.43;3.03;;;;;;;;;;10468589;28;20033;-76
2024/01/31 07:30:06;;;;;;;8.65;2.70;;;;;;;;;;10473651;28;20051;-73
2024/01/31 07:35:11;;;;;;;6.32;1.73;;;;;;;;;;10475383;28;20490;-75
2024/01/31 07:40:29;;;;;;;11.32;3.15;;;;;;;;;;10474254;28;20040;-75
2024/01/31 07:45:34;;;;;;;5.50;2.70;;;;;;;;;;10455808;28;20048;-75
2024/01/31 07:50:44;;;;;;;5.10;1.90;;;;;;;;;;10473845;28;21956;-74
2024/01/31 07:55:53;;;;;;;7.38;3.35;;;;;;;;;;10454559;28;20052;-76
2024/01/31 08:01:02;;;;;;;3.72;2.05;;;;;;;;;;10459899;28;20052;-75
2024/01/31 08:06:11;;;;;;;10.32;3.63;;;;;;;;;;10471140;28;20508;-76
2024/01/31 08:11:24;;;;;;;10.30;3.63;;;;;;;;;;10471630;28;20507;-76
2024/01/31 08:16:35;;;;;;;8.65;3.22;;;;;;;;;;10471967;28;20044;-76
2024/01/31 08:22:08;;;;;;;10.63;3.80;;;;;;;;;;10474971;28;20127;-77
2024/01/31 08:27:21;;;;;;;10.85;4.25;;;;;;;;;;10475430;28;20046;-76
2024/01/31 08:32:26;;;;;;;13.43;4.00;;;;;;;;;;10439217;28;20052;-75
2024/01/31 08:37:38;;;;;;;9.63;3.67;;;;;;;;;;10468124;28;20060;-76
2024/01/31 08:42:48;;;;;;;4.20;2.25;;;;;;;;;;10456591;28;20044;-77
2024/01/31 08:47:57;;;;;;;7.68;3.55;;;;;;;;;;10471804;28;22095;-76
2024/01/31 08:53:02;;;;;;;8.95;3.95;;;;;;;;;;10474347;28;20480;-77
2024/01/31 08:58:19;;;;;;;9.40;3.90;;;;;;;;;;10453384;28;20052;-76
2024/01/31 09:03:36;;;;;;;10.35;4.05;;;;;;;;;;10458234;28;20072;-76
2024/01/31 09:08:42;;;;;;;8.52;4.20;;;;;;;;;;10470247;28;20055;-76
2024/01/31 09:14:00;;;;;;;8.18;3.72;;;;;;;;;;10467556;28;20493;-77
2024/01/31 09:19:14;;;;;;;9.43;4.82;;;;;;;;;;10452054;28;20131;-76
2024/01/31 09:24:20;;;;;;;10.43;5.03;;;;;;;;;;10461986;28;20051;-76
2024/01/31 09:29:31;;;;;;;8.30;3.78;;;;;;;;;;10470111;28;20527;-77
2024/01/31 09:40:03;;;;;;;11.38;5.03;;;;;;;;;;10469864;28;20047;-75
2024/01/31 09:45:14;;;;;;;9.40;4.40;;;;;;;;;;10450513;28;20048;-76
2024/01/31 09:50:20;;;;;;;8.18;4.57;;;;;;;;;;10452738;28;20130;-75
2024/01/31 09:55:34;;;;;;;9.48;4.25;;;;;;;;;;10444309;28;20040;-76
2024/01/31 10:00:45;;;;;;;9.27;4.13;;;;;;;;;;10469299;28;20127;-76
2024/01/31 10:05:56;;;;;;;;;;;;;;;;;;10466841;28;20040;-76
2024/01/31 10:11:14;;;;;;;10.50;5.00;;;;;;;;;;10467766;28;19928;-76
2024/01/31 10:16:22;;;;;;;8.95;4.50;;;;;;;;;;10452930;28;20512;-76
2024/01/31 10:21:29;;;;;;;9.75;4.47;;;;;;;;;;10473146;28;20616;-75
2024/01/31 10:26:38;;;;;;;7.53;3.20;;;;;;;;;;10449238;28;20044;-76
2024/01/31 10:31:54;;;;;;;10.52;5.18;;;;;;;;;;10463521;28;20056;-76
2024/01/31 10:37:00;;;;;;;10.25;4.25;;;;;;;;;;10451506;28;20551;-75
2024/01/31 10:42:17;;;;;;;5.75;2.78;;;;;;;;;;10474259;28;20052;-76
2024/01/31 10:47:25;;;;;;;12.18;4.50;;;;;;;;;;10474809;28;20057;-75
2024/01/31 10:52:32;;;;;;;9.82;4.20;;;;;;;;;;10473963;28;20044;-75
2024/01/31 10:57:44;;;;;;;6.85;3.50;;;;;;;;;;10473648;28;20126;-75
2024/01/31 11:03:08;;;;;;;10.20;3.95;;;;;;;;;;10462483;28;20515;-75
2024/01/31 11:08:26;;;;;;;8.50;3.60;;;;;;;;;;10446230;28;20079;-76
2024/01/31 11:13:31;;;;;;;7.38;3.45;;;;;;;;;;10460129;28;20047;-76
2024/01/31 11:18:54;;;;;;;8.35;3.63;;;;;;;;;;10476941;28;20050;-77
2024/01/31 11:24:00;;;;;;;9.20;3.78;;;;;;;;;;10475475;28;20100;-75
2024/01/31 11:29:09;;;;;;;12.05;4.53;;;;;;;;;;10460534;28;20056;-75
2024/01/31 11:34:19;;;;;;;8.15;4.03;;;;;;;;;;10475712;28;20063;-75
2024/01/31 11:39:26;;;;;;;7.28;3.40;;;;;;;;;;10469576;28;20052;-74
2024/01/31 11:44:35;;;;;;;8.75;4.07;;;;;;;;;;10454553;28;20053;-75
2024/01/31 11:49:49;;;;;;;6.18;3.60;;;;;;;;;;10470611;28;20064;-75
2024/01/31 11:54:57;;;;;;;11.43;4.60;;;;;;;;;;10469058;28;20955;-76
2024/01/31 12:00:04;;;;;;;6.93;3.97;;;;;;;;;;10474306;28;20064;-75
2024/01/31 12:05:14;;;;;;;15.05;4.93;;;;;;;;;;10472342;28;20049;-75
2024/01/31 12:10:20;;;;;;;10.93;4.40;;;;;;;;;;10458466;28;20067;-76
2024/01/31 12:15:33;;;;;;;11.85;4.78;;;;;;;;;;10472485;28;20524;-76
2024/01/31 12:21:01;;;;;;;10.70;4.40;;;;;;;;;;10477833;28;20056;-77
2024/01/31 12:26:12;;;;;;;15.32;5.03;;;;;;;;;;10474218;28;20032;-76
2024/01/31 12:31:20;;;;;;;11.55;4.97;;;;;;;;;;10470997;28;20036;-77
2024/01/31 12:36:32;;;;;;;8.35;4.90;;;;;;;;;;10455317;28;20086;-76
2024/01/31 12:42:01;;;;;;;10.95;4.90;;;;;;;;;;10442702;28;20123;-77
2024/01/31 12:47:14;;;;;;;12.27;5.07;;;;;;;;;;10472530;28;20040;-77
2024/01/31 12:52:27;;;;;;;12.82;6.03;;;;;;;;;;10473996;28;20236;-77
2024/01/31 12:57:34;;;;;;;10.68;5.25;;;;;;;;;;10452415;28;20040;-76
2024/01/31 13:02:50;;;;;;;10.63;5.20;;;;;;;;;;10469792;28;20066;-76
2024/01/31 13:07:57;;;;;;;10.48;4.88;;;;;;;;;;10470643;28;20169;-76
2024/01/31 13:13:10;;;;;;;8.35;4.63;;;;;;;;;;10454019;28;20173;-77
2024/01/31 13:18:23;;;;;;;14.25;4.90;;;;;;;;;;10472003;28;20048;-76
2024/01/31 13:23:27;;;;;;;10.07;5.03;;;;;;;;;;10455805;28;20040;-76
2024/01/31 13:28:34;;;;;;;11.23;4.78;;;;;;;;;;10450545;28;20410;-79
2024/01/31 13:33:45;;;;;;;10.95;4.95;;;;;;;;;;10470370;28;20052;-76
2024/01/31 13:39:03;;;;;;;6.72;3.92;;;;;;;;;;10450492;28;20036;-76
2024/01/31 13:44:16;;;;;;;13.63;4.88;;;;;;;;;;10453999;28;20045;-75
2024/01/31 13:49:27;;;;;;;8.80;4.10;;;;;;;;;;10467696;28;20694;-76
2024/01/31 13:54:34;;;;;;;8.52;4.32;;;;;;;;;;10470550;28;20040;-76
2024/01/31 13:59:44;;;;;;;10.13;4.45;;;;;;;;;;10453326;28;20106;-76
2024/01/31 14:04:54;;;;;;;8.70;4.10;;;;;;;;;;10454853;28;20498;-76
2024/01/31 14:10:08;;;;;;;8.93;3.80;;;;;;;;;;10466567;28;20067;-75
2024/01/31 14:15:16;;;;;;;8.10;3.92;;;;;;;;;;10468640;28;20067;-76
2024/01/31 14:20:44;;;;;;;8.82;3.88;;;;;;;;;;10466481;28;20049;-75
2024/01/31 14:26:03;;;;;;;7.88;3.90;;;;;;;;;;10468150;28;20279;-75
2024/01/31 14:36:33;;;;;;;8.25;3.63;;;;;;;;;;10467549;28;20053;-76
2024/01/31 14:41:50;;;;;;;9.95;2.88;;;;;;;;;;10468537;28;20056;-75
2024/01/31 14:46:57;;;;;;;6.85;3.35;;;;;;;;;;10448442;28;20195;-75
2024/01/31 14:52:15;;;;;;;6.32;2.80;;;;;;;;;;10465416;28;20060;-75
2024/01/31 15:02:50;;;;;;;9.35;3.30;;;;;;;;;;10452580;28;20086;-76
2024/01/31 15:08:02;;;;;;;9.18;3.40;;;;;;;;;;10466781;28;20154;-77
2024/01/31 15:13:19;;;;;;;7.38;3.30;;;;;;;;;;10451470;28;20561;-75
2024/01/31 15:18:23;;;;;;;10.80;3.60;;;;;;;;;;10469940;28;20075;-75
2024/01/31 15:23:30;;;;;;;7.78;3.22;;;;;;;;;;10474312;28;20056;-76
2024/01/31 15:28:39;;;;;;;8.27;3.08;;;;;;;;;;10443057;28;20501;-76
2024/01/31 15:33:44;;;;;;;8.93;3.17;;;;;;;;;;10442183;28;20486;-74
2024/01/31 15:38:54;;;;;;;7.75;3.58;;;;;;;;;;10456025;28;20059;-75
2024/01/31 15:44:06;;;;;;;11.63;4.25;;;;;;;;;;10442089;28;20041;-75
2024/01/31 15:49:19;;;;;;;11.43;4.13;;;;;;;;;;10442288;28;20048;-75
2024/01/31 15:54:34;;;;;;;11.50;4.45;;;;;;;;;;10442794;28;20111;-76
2024/01/31 15:59:41;;;;;;;10.05;4.00;;;;;;;;;;10444692;28;20509;-75
2024/01/31 16:04:45;;;;;;;9.52;3.70;;;;;;;;;;10436738;28;20463;-75
2024/01/31 16:09:55;;;;;;;9.98;4.00;;;;;;;;;;10439062;28;20471;-76
2024/01/31 16:20:34;;;;;;;10.10;4.10;;;;;;;;;;10441235;28;20049;-76
2024/01/31 16:31:24;;;;;;;14.07;4.47;;;;;;;;;;10473789;28;20218;-75
2024/01/31 16:36:35;;;;;;;9.48;4.45;;;;;;;;;;10466873;28;20029;-76
2024/01/31 16:41:56;;;;;;;9.45;4.32;;;;;;;;;;10454630;28;20488;-75
2024/01/31 16:47:16;;;;;;;11.07;4.72;;;;;;;;;;10471481;28;20044;-76
2024/01/31 16:52:29;;;;;;;12.35;5.43;;;;;;;;;;10474752;28;20493;-76
2024/01/31 16:57:35;;;;;;;14.80;5.53;;;;;;;;;;10452880;28;20048;-75
2024/01/31 17:02:46;;;;;;;12.77;4.90;;;;;;;;;;10470739;28;20040;-76
2024/01/31 17:07:59;;;;;;;15.30;4.82;;;;;;;;;;10467647;28;20052;-75
2024/01/31 17:13:04;;;;;;;17.30;6.78;;;;;;;;;;10447622;28;20078;-76
2024/01/31 17:18:11;;;;;;;22.92;6.60;;;;;;;;;;10472075;28;20570;-76
2024/01/31 17:23:31;;;;;;;13.60;5.25;;;;;;;;;;10438886;28;20037;-74
2024/01/31 17:28:37;;;;;;;13.80;5.22;;;;;;;;;;10450135;28;20489;-75
2024/01/31 17:33:59;;;;;;;12.00;5.57;;;;;;;;;;10468983;28;20056;-76
2024/01/31 17:39:26;;;;;;;14.38;5.50;;;;;;;;;;10472671;28;20068;-76
2024/01/31 17:44:30;;;;;;;12.48;6.13;;;;;;;;;;10457211;28;20055;-75
2024/01/31 17:49:34;;;;;;;15.00;5.75;;;;;;;;;;10472690;28;20507;-74
2024/01/31 17:54:52;;;;;;;16.80;6.68;;;;;;;;;;10455438;28;20043;-76
2024/01/31 18:00:02;;;;;;;17.65;6.20;;;;;;;;;;10473927;28;20502;-75
2024/01/31 18:05:14;;;;;;;16.17;5.43;;;;;;;;;;10466212;28;20055;-74
2024/01/31 18:10:20;;;;;;;15.48;6.20;;;;;;;;;;10451207;28;20754;-76
2024/01/31 18:15:46;;;;;;;15.75;6.53;;;;;;;;;;10465299;28;20523;-76
2024/01/31 18:21:01;;;;;;;;;;;;;;;;;;10469118;28;20051;-76
2024/01/31 18:26:09;;;;;;;12.75;5.20;;;;;;;;;;10451727;28;19929;-77
2024/01/31 18:31:27;;;;;;;15.02;6.25;;;;;;;;;;10466003;28;20142;-76
2024/01/31 18:36:33;;;;;;;19.67;7.67;;;;;;;;;;10465702;28;20052;-76
2024/01/31 18:41:53;;;;;;;16.75;5.95;;;;;;;;;;10469526;28;20040;-75
2024/01/31 18:47:06;;;;;;;12.85;4.35;;;;;;;;;;10468708;28;20037;-75
2024/01/31 18:52:09;;;;;;;20.55;6.78;;;;;;;;;;10467269;28;20095;-75
2024/01/31 18:57:23;;;;;;;5.43;2.63;;;;;;;;;;10460161;28;20044;-75
2024/01/31 19:02:32;;;;;;;21.75;7.05;;;;;;;;;;10479542;28;20905;-76
2024/01/31 19:07:47;;;;;;;11.20;4.63;;;;;;;;;;10474850;28;20127;-75
2024/01/31 19:12:55;;;;;;;14.23;5.57;;;;;;;;;;10460532;28;20052;-75
2024/01/31 19:18:07;;;;;;;17.25;6.35;;;;;;;;;;10460140;28;20055;-75
2024/01/31 19:23:12;;;;;;;16.13;6.43;;;;;;;;;;10458310;28;20330;-75
2024/01/31 19:28:20;;;;;;;6.35;2.83;;;;;;;;;;10466058;28;20044;-75
2024/01/31 19:33:32;;;;;;;6.45;2.58;;;;;;;;;;10473947;28;20125;-74
2024/01/31 19:38:51;;;;;;;7.32;3.22;;;;;;;;;;10461926;28;20040;-75
2024/01/31 19:44:10;;;;;;;5.57;1.67;;;;;;;;;;10476898;28;20056;-75
2024/01/31 19:49:13;;;;;;;8.75;3.60;;;;;;;;;;10475375;28;20143;-74
2024/01/31 19:54:26;;;;;;;8.02;3.67;;;;;;;;;;10477632;28;20133;-75
2024/01/31 19:59:40;;;;;;;9.73;4.03;;;;;;;;;;10479950;28;20055;-77
2024/01/31 20:04:57;;;;;;;14.63;4.60;;;;;;;;;;10479430;28;20079;-75
2024/01/31 20:10:21;;;;;;;12.10;4.35;;;;;;;;;;10474541;28;20043;-76
2024/01/31 20:15:50;;;;;;;13.70;5.60;;;;;;;;;;10474655;28;20085;-76
2024/01/31 20:20:55;;;;;;;10.45;3.70;;;;;;;;;;10475307;28;20116;-76
2024/01/31 20:26:15;;;;;;;12.25;4.45;;;;;;;;;;10474506;28;20490;-75
2024/01/31 20:31:20;;;;;;;20.38;5.55;;;;;;;;;;10471179;28;20062;-75
2024/01/31 20:36:25;;;;;;;13.10;4.18;;;;;;;;;;10471622;28;20497;-75
2024/01/31 20:41:39;;;;;;;11.82;4.25;;;;;;;;;;10475486;28;22232;-75
2024/01/31 20:46:47;;;;;;;8.30;3.22;;;;;;;;;;10456332;28;20048;-76
2024/01/31 20:51:57;;;;;;;10.35;3.95;;;;;;;;;;10455798;28;20148;-76
2024/01/31 20:57:06;;;;;;;9.48;3.70;;;;;;;;;;10473432;28;20439;-75
2024/01/31 21:02:12;;;;;;;8.07;3.15;;;;;;;;;;10472600;28;20119;-76
2024/01/31 21:07:39;;;;;;;5.72;2.38;;;;;;;;;;10473659;28;20044;-76
2024/01/31 21:12:50;;;;;;;6.53;3.00;;;;;;;;;;10454730;28;20060;-75
2024/01/31 21:17:59;;;;;;;9.90;3.80;;;;;;;;;;10475122;28;20165;-74
2024/01/31 21:23:07;;;;;;;8.70;3.53;;;;;;;;;;10473239;28;20051;-75
2024/01/31 21:28:14;;;;;;;13.05;4.10;;;;;;;;;;10453649;28;20559;-76
2024/01/31 21:33:26;;;;;;;10.02;4.10;;;;;;;;;;10474299;28;20108;-75
2024/01/31 21:38:42;;;;;;;12.55;4.25;;;;;;;;;;10457337;28;20059;-77
2024/01/31 21:43:49;;;;;;;6.13;2.17;;;;;;;;;;10473480;28;20036;-75
2024/01/31 21:49:06;;;;;;;9.73;4.32;;;;;;;;;;10473300;28;20040;-75
2024/01/31 21:54:18;;;;;;;11.00;4.25;;;;;;;;;;10470636;28;20075;-75
2024/01/31 21:59:24;;;;;;;15.10;4.32;;;;;;;;;;10454897;28;20052;-76
2024/01/31 22:04:32;;;;;;;10.50;2.50;;;;;;;;;;10437019;28;20186;-76
2024/01/31 22:15:14;;;;;;;12.10;3.85;;;;;;;;;;10452327;28;20505;-78
2024/01/31 22:20:21;;;;;;;9.93;3.78;;;;;;;;;;10478672;28;20966;-76
2024/01/31 22:25:30;;;;;;;11.52;3.67;;;;;;;;;;10475812;28;20092;-77
2024/01/31 22:30:36;;;;;;;8.00;3.78;;;;;;;;;;10473586;28;20506;-76
2024/01/31 22:35:54;;;;;;;10.00;4.13;;;;;;;;;;10470239;28;20163;-77
2024/01/31 22:41:14;;;;;;;5.53;2.35;;;;;;;;;;10456635;28;20059;-76
2024/01/31 22:46:42;;;;;;;5.70;2.53;;;;;;;;;;10455723;28;20116;-76
2024/01/31 22:51:59;;;;;;;4.30;1.88;;;;;;;;;;10476274;28;20048;-77
2024/01/31 22:57:17;;;;;;;7.20;2.05;;;;;;;;;;10475667;28;22024;-76
2024/01/31 23:02:23;;;;;;;7.28;2.83;;;;;;;;;;10462011;28;20148;-75
2024/01/31 23:07:34;;;;;;;8.45;3.95;;;;;;;;;;10481584;28;20042;-75
2024/01/31 23:12:44;;;;;;;11.25;3.65;;;;;;;;;;10476127;28;20067;-77
2024/01/31 23:18:04;;;;;;;8.07;3.38;;;;;;;;;;10467025;28;20044;-76
2024/01/31 23:23:13;;;;;;;7.15;2.88;;;;;;;;;;10473080;28;20130;-78
2024/01/31 23:28:19;;;;;;;9.57;3.05;;;;;;;;;;10471278;28;20175;-77
2024/01/31 23:33:41;;;;;;;7.80;3.33;;;;;;;;;;10457151;28;20052;-77
2024/01/31 23:38:49;;;;;;;4.57;1.83;;;;;;;;;;10470770;28;20057;-78
2024/01/31 23:43:53;;;;;;;8.32;3.65;;;;;;;;;;10479862;28;20045;-78
2024/01/31 23:49:25;;;;;;;7.05;3.17;;;;;;;;;;10474179;28;20059;-77
2024/01/31 23:54:33;;;;;;;4.10;1.60;;;;;;;;;;10476187;28;20048;-75
2024/01/31 23:59:44;;;;;;;7.25;3.50;;;;;;;;;;10463572;28;20044;-77
